Bellevue, Kentucky
Current Conditions -  °F | °C
As of 8:33 AM on Monday 22 Dec 2014 (Local Time) from KLUK Reporting Station
Broken Clouds Broken Clouds  
Wind Chill: 31°   Ceiling: 2700
Heat Index: 31°   Visibility: 8mi
Dew Point: 30°   Wind: 0mph
Humidity: 96%   Direction: NA
Pressure: 30.04"   Gusts: NA
Location:  39.11°N, 84.48°W
Report Text: KLUK 221333Z 00000KT 8SM BKN027 BKN037 M01/M01 A3004 RMK AO2 T10061011
Loading
Personal Weather Stations






























Interactive Weather Map New forecast layout! Learn more

10-Day Weather Forecast

Advertisements
Track Severe Weather on mobile